sensor_id;sensor_type;location;lat;lon;timestamp;P1;durP1;ratioP1;P2;durP2;ratioP2
9186;SDS011;7273;48.902;9.410;2022-07-11T00:02:13;48.53;;;30.88;;
9186;SDS011;7273;48.902;9.410;2022-07-11T00:04:39;57.85;;;31.52;;
9186;SDS011;7273;48.902;9.410;2022-07-11T00:07:07;62.70;;;36.10;;
9186;SDS011;7273;48.902;9.410;2022-07-11T00:09:32;82.85;;;45.30;;
9186;SDS011;7273;48.902;9.410;2022-07-11T00:11:58;31.23;;;17.20;;
9186;SDS011;7273;48.902;9.410;2022-07-11T00:14:24;2.60;;;1.27;;
9186;SDS011;7273;48.902;9.410;2022-07-11T00:16:50;6.63;;;1.08;;
9186;SDS011;7273;48.902;9.410;2022-07-11T00:19:17;1.23;;;0.38;;
9186;SDS011;7273;48.902;9.410;2022-07-11T00:21:43;1.30;;;0.50;;
9186;SDS011;7273;48.902;9.410;2022-07-11T00:24:09;3.70;;;1.05;;
9186;SDS011;7273;48.902;9.410;2022-07-11T00:26:35;1.73;;;0.85;;
9186;SDS011;7273;48.902;9.410;2022-07-11T00:29:01;1.67;;;0.57;;
9186;SDS011;7273;48.902;9.410;2022-07-11T00:31:26;0.85;;;0.50;;
9186;SDS011;7273;48.902;9.410;2022-07-11T00:33:53;2.35;;;0.75;;
9186;SDS011;7273;48.902;9.410;2022-07-11T00:36:18;3.17;;;1.35;;
9186;SDS011;7273;48.902;9.410;2022-07-11T00:38:44;2.67;;;0.65;;
9186;SDS011;7273;48.902;9.410;2022-07-11T00:41:09;0.35;;;0.20;;
9186;SDS011;7273;48.902;9.410;2022-07-11T00:43:37;0.40;;;0.28;;
9186;SDS011;7273;48.902;9.410;2022-07-11T00:46:03;5.47;;;1.15;;
9186;SDS011;7273;48.902;9.410;2022-07-11T00:48:30;10.60;;;1.58;;
9186;SDS011;7273;48.902;9.410;2022-07-11T00:50:56;2.13;;;0.88;;
9186;SDS011;7273;48.902;9.410;2022-07-11T00:53:22;2.40;;;1.17;;
9186;SDS011;7273;48.902;9.410;2022-07-11T00:55:49;3.58;;;1.83;;
9186;SDS011;7273;48.902;9.410;2022-07-11T00:58:15;3.83;;;2.15;;
9186;SDS011;7273;48.902;9.410;2022-07-11T01:00:40;2.95;;;1.83;;
9186;SDS011;7273;48.902;9.410;2022-07-11T01:03:06;3.40;;;1.90;;
9186;SDS011;7273;48.902;9.410;2022-07-11T01:05:32;4.28;;;2.00;;
9186;SDS011;7273;48.902;9.410;2022-07-11T01:07:57;3.47;;;2.13;;
9186;SDS011;7273;48.902;9.410;2022-07-11T01:10:22;0.70;;;0.35;;
9186;SDS011;7273;48.902;9.410;2022-07-11T01:12:48;3.67;;;1.50;;
9186;SDS011;7273;48.902;9.410;2022-07-11T01:15:15;3.60;;;1.75;;
9186;SDS011;7273;48.902;9.410;2022-07-11T01:17:41;13.75;;;4.18;;
9186;SDS011;7273;48.902;9.410;2022-07-11T01:20:06;10.35;;;6.75;;
9186;SDS011;7273;48.902;9.410;2022-07-11T01:22:36;6.60;;;3.38;;
9186;SDS011;7273;48.902;9.410;2022-07-11T01:25:03;6.32;;;3.72;;
9186;SDS011;7273;48.902;9.410;2022-07-11T01:27:29;10.70;;;3.97;;
9186;SDS011;7273;48.902;9.410;2022-07-11T01:29:54;16.52;;;10.80;;
9186;SDS011;7273;48.902;9.410;2022-07-11T01:32:20;3.50;;;2.15;;
9186;SDS011;7273;48.902;9.410;2022-07-11T01:34:46;16.08;;;9.60;;
9186;SDS011;7273;48.902;9.410;2022-07-11T01:37:12;4.65;;;2.40;;
9186;SDS011;7273;48.902;9.410;2022-07-11T01:39:37;3.67;;;2.45;;
9186;SDS011;7273;48.902;9.410;2022-07-11T01:42:03;3.05;;;2.00;;
9186;SDS011;7273;48.902;9.410;2022-07-11T01:44:28;4.15;;;2.50;;
9186;SDS011;7273;48.902;9.410;2022-07-11T01:46:54;5.22;;;2.50;;
9186;SDS011;7273;48.902;9.410;2022-07-11T01:49:19;24.45;;;2.72;;
9186;SDS011;7273;48.902;9.410;2022-07-11T01:51:45;7.40;;;4.57;;
9186;SDS011;7273;48.902;9.410;2022-07-11T01:54:11;14.63;;;11.15;;
9186;SDS011;7273;48.902;9.410;2022-07-11T01:56:36;20.05;;;16.15;;
9186;SDS011;7273;48.902;9.410;2022-07-11T01:59:02;15.05;;;10.98;;
9186;SDS011;7273;48.902;9.410;2022-07-11T02:01:27;7.30;;;5.40;;
9186;SDS011;7273;48.902;9.410;2022-07-11T02:03:53;33.97;;;25.75;;
9186;SDS011;7273;48.902;9.410;2022-07-11T02:06:20;27.27;;;20.17;;
9186;SDS011;7273;48.902;9.410;2022-07-11T02:08:45;19.10;;;13.50;;
9186;SDS011;7273;48.902;9.410;2022-07-11T02:11:10;25.55;;;17.95;;
9186;SDS011;7273;48.902;9.410;2022-07-11T02:13:36;34.97;;;24.38;;
9186;SDS011;7273;48.902;9.410;2022-07-11T02:16:01;14.52;;;10.90;;
9186;SDS011;7273;48.902;9.410;2022-07-11T02:18:27;11.40;;;7.97;;
9186;SDS011;7273;48.902;9.410;2022-07-11T02:20:53;7.47;;;4.82;;
9186;SDS011;7273;48.902;9.410;2022-07-11T02:23:19;16.98;;;11.88;;
9186;SDS011;7273;48.902;9.410;2022-07-11T02:25:45;11.20;;;8.32;;
9186;SDS011;7273;48.902;9.410;2022-07-11T02:28:11;5.93;;;3.42;;
9186;SDS011;7273;48.902;9.410;2022-07-11T02:30:38;4.18;;;2.75;;
9186;SDS011;7273;48.902;9.410;2022-07-11T02:33:05;11.50;;;8.50;;
9186;SDS011;7273;48.902;9.410;2022-07-11T02:35:36;13.45;;;11.13;;
9186;SDS011;7273;48.902;9.410;2022-07-11T02:38:02;6.82;;;5.43;;
9186;SDS011;7273;48.902;9.410;2022-07-11T02:40:28;22.13;;;14.93;;
9186;SDS011;7273;48.902;9.410;2022-07-11T02:42:53;17.15;;;11.77;;
9186;SDS011;7273;48.902;9.410;2022-07-11T02:45:20;4.53;;;1.95;;
9186;SDS011;7273;48.902;9.410;2022-07-11T02:47:46;8.15;;;5.00;;
9186;SDS011;7273;48.902;9.410;2022-07-11T02:50:11;26.45;;;19.00;;
9186;SDS011;7273;48.902;9.410;2022-07-11T02:52:38;18.13;;;12.43;;
9186;SDS011;7273;48.902;9.410;2022-07-11T02:55:06;7.10;;;5.35;;
9186;SDS011;7273;48.902;9.410;2022-07-11T02:57:32;7.13;;;4.25;;
9186;SDS011;7273;48.902;9.410;2022-07-11T02:59:58;10.68;;;7.38;;
9186;SDS011;7273;48.902;9.410;2022-07-11T03:02:23;39.05;;;24.60;;
9186;SDS011;7273;48.902;9.410;2022-07-11T03:04:49;38.10;;;25.08;;
9186;SDS011;7273;48.902;9.410;2022-07-11T03:07:15;42.97;;;25.83;;
9186;SDS011;7273;48.902;9.410;2022-07-11T03:09:41;23.80;;;16.58;;
9186;SDS011;7273;48.902;9.410;2022-07-11T03:12:07;6.85;;;4.47;;
9186;SDS011;7273;48.902;9.410;2022-07-11T03:14:32;33.78;;;22.58;;
9186;SDS011;7273;48.902;9.410;2022-07-11T03:16:58;21.67;;;14.88;;
9186;SDS011;7273;48.902;9.410;2022-07-11T03:19:23;35.10;;;22.55;;
9186;SDS011;7273;48.902;9.410;2022-07-11T03:21:49;65.30;;;39.58;;
9186;SDS011;7273;48.902;9.410;2022-07-11T03:24:14;55.25;;;33.85;;
9186;SDS011;7273;48.902;9.410;2022-07-11T03:26:39;40.00;;;26.45;;
9186;SDS011;7273;48.902;9.410;2022-07-11T03:29:05;52.58;;;32.35;;
9186;SDS011;7273;48.902;9.410;2022-07-11T03:31:33;43.88;;;29.17;;
9186;SDS011;7273;48.902;9.410;2022-07-11T03:33:58;76.75;;;44.97;;
9186;SDS011;7273;48.902;9.410;2022-07-11T03:36:24;60.72;;;37.35;;
9186;SDS011;7273;48.902;9.410;2022-07-11T03:38:49;41.00;;;26.98;;
9186;SDS011;7273;48.902;9.410;2022-07-11T03:41:15;88.65;;;48.97;;
9186;SDS011;7273;48.902;9.410;2022-07-11T03:43:40;52.15;;;30.92;;
9186;SDS011;7273;48.902;9.410;2022-07-11T03:46:05;61.60;;;37.25;;
9186;SDS011;7273;48.902;9.410;2022-07-11T03:48:32;55.97;;;33.33;;
9186;SDS011;7273;48.902;9.410;2022-07-11T03:50:57;30.17;;;19.52;;
9186;SDS011;7273;48.902;9.410;2022-07-11T03:53:23;44.65;;;30.63;;
9186;SDS011;7273;48.902;9.410;2022-07-11T03:55:48;61.20;;;38.13;;
9186;SDS011;7273;48.902;9.410;2022-07-11T03:58:13;72.85;;;43.22;;
9186;SDS011;7273;48.902;9.410;2022-07-11T04:00:39;83.38;;;47.25;;
9186;SDS011;7273;48.902;9.410;2022-07-11T04:03:04;124.40;;;62.65;;
9186;SDS011;7273;48.902;9.410;2022-07-11T04:05:30;126.38;;;61.08;;
9186;SDS011;7273;48.902;9.410;2022-07-11T04:07:55;131.52;;;62.35;;
9186;SDS011;7273;48.902;9.410;2022-07-11T04:10:22;133.20;;;63.38;;
9186;SDS011;7273;48.902;9.410;2022-07-11T04:12:47;162.40;;;71.35;;
9186;SDS011;7273;48.902;9.410;2022-07-11T04:15:12;178.25;;;75.22;;
9186;SDS011;7273;48.902;9.410;2022-07-11T04:17:38;123.40;;;60.88;;
9186;SDS011;7273;48.902;9.410;2022-07-11T04:20:04;125.88;;;60.92;;
9186;SDS011;7273;48.902;9.410;2022-07-11T04:22:30;106.30;;;55.17;;
9186;SDS011;7273;48.902;9.410;2022-07-11T04:24:56;112.35;;;56.90;;
9186;SDS011;7273;48.902;9.410;2022-07-11T04:27:21;102.07;;;53.15;;
9186;SDS011;7273;48.902;9.410;2022-07-11T04:29:47;92.05;;;50.92;;
9186;SDS011;7273;48.902;9.410;2022-07-11T04:32:12;127.63;;;61.33;;
9186;SDS011;7273;48.902;9.410;2022-07-11T04:34:38;120.95;;;59.83;;
9186;SDS011;7273;48.902;9.410;2022-07-11T04:37:03;133.20;;;62.95;;
9186;SDS011;7273;48.902;9.410;2022-07-11T04:39:30;139.35;;;63.85;;
9186;SDS011;7273;48.902;9.410;2022-07-11T04:41:57;150.23;;;67.63;;
9186;SDS011;7273;48.902;9.410;2022-07-11T04:44:23;158.63;;;70.22;;
9186;SDS011;7273;48.902;9.410;2022-07-11T04:46:48;142.27;;;66.25;;
9186;SDS011;7273;48.902;9.410;2022-07-11T04:49:14;148.77;;;67.63;;
9186;SDS011;7273;48.902;9.410;2022-07-11T04:51:39;157.55;;;70.35;;
9186;SDS011;7273;48.902;9.410;2022-07-11T04:54:05;157.27;;;70.18;;
9186;SDS011;7273;48.902;9.410;2022-07-11T04:56:30;158.18;;;69.95;;
9186;SDS011;7273;48.902;9.410;2022-07-11T04:58:56;156.40;;;70.25;;
9186;SDS011;7273;48.902;9.410;2022-07-11T05:01:21;159.73;;;70.18;;
9186;SDS011;7273;48.902;9.410;2022-07-11T05:03:47;154.15;;;69.32;;
9186;SDS011;7273;48.902;9.410;2022-07-11T05:06:12;136.55;;;64.78;;
9186;SDS011;7273;48.902;9.410;2022-07-11T05:08:37;146.27;;;67.75;;
9186;SDS011;7273;48.902;9.410;2022-07-11T05:11:03;168.90;;;73.28;;
9186;SDS011;7273;48.902;9.410;2022-07-11T05:13:29;183.60;;;76.28;;
9186;SDS011;7273;48.902;9.410;2022-07-11T05:15:56;168.52;;;73.68;;
9186;SDS011;7273;48.902;9.410;2022-07-11T05:18:21;171.45;;;73.88;;
9186;SDS011;7273;48.902;9.410;2022-07-11T05:20:46;158.10;;;71.10;;
9186;SDS011;7273;48.902;9.410;2022-07-11T05:23:13;160.48;;;71.13;;
9186;SDS011;7273;48.902;9.410;2022-07-11T05:25:39;166.48;;;72.95;;
9186;SDS011;7273;48.902;9.410;2022-07-11T05:28:04;179.07;;;76.53;;
9186;SDS011;7273;48.902;9.410;2022-07-11T05:30:30;197.73;;;80.30;;
9186;SDS011;7273;48.902;9.410;2022-07-11T05:32:55;228.68;;;87.20;;
9186;SDS011;7273;48.902;9.410;2022-07-11T05:35:21;273.88;;;96.13;;
9186;SDS011;7273;48.902;9.410;2022-07-11T05:37:46;220.05;;;84.35;;
9186;SDS011;7273;48.902;9.410;2022-07-11T05:40:12;239.15;;;90.30;;
9186;SDS011;7273;48.902;9.410;2022-07-11T05:42:37;245.30;;;89.95;;
9186;SDS011;7273;48.902;9.410;2022-07-11T05:45:03;273.10;;;97.65;;
9186;SDS011;7273;48.902;9.410;2022-07-11T05:47:28;288.90;;;100.72;;
9186;SDS011;7273;48.902;9.410;2022-07-11T05:49:54;394.05;;;122.95;;
9186;SDS011;7273;48.902;9.410;2022-07-11T05:52:19;356.85;;;114.20;;
9186;SDS011;7273;48.902;9.410;2022-07-11T05:54:44;403.35;;;124.13;;
9186;SDS011;7273;48.902;9.410;2022-07-11T05:57:10;393.08;;;121.65;;
9186;SDS011;7273;48.902;9.410;2022-07-11T05:59:35;351.10;;;112.68;;
9186;SDS011;7273;48.902;9.410;2022-07-11T06:02:02;337.83;;;109.20;;
9186;SDS011;7273;48.902;9.410;2022-07-11T06:04:28;377.25;;;117.30;;
9186;SDS011;7273;48.902;9.410;2022-07-11T06:06:53;356.75;;;112.90;;
9186;SDS011;7273;48.902;9.410;2022-07-11T06:09:18;371.88;;;117.13;;
9186;SDS011;7273;48.902;9.410;2022-07-11T06:11:44;354.48;;;113.03;;
9186;SDS011;7273;48.902;9.410;2022-07-11T06:14:09;372.35;;;116.45;;
9186;SDS011;7273;48.902;9.410;2022-07-11T06:16:35;373.13;;;116.78;;
9186;SDS011;7273;48.902;9.410;2022-07-11T06:19:01;406.67;;;124.20;;
9186;SDS011;7273;48.902;9.410;2022-07-11T06:21:27;393.55;;;120.38;;
9186;SDS011;7273;48.902;9.410;2022-07-11T06:23:53;410.85;;;124.88;;
9186;SDS011;7273;48.902;9.410;2022-07-11T06:26:22;411.33;;;124.93;;
9186;SDS011;7273;48.902;9.410;2022-07-11T06:28:47;421.50;;;127.20;;
9186;SDS011;7273;48.902;9.410;2022-07-11T06:31:13;435.88;;;131.73;;
9186;SDS011;7273;48.902;9.410;2022-07-11T06:33:39;439.63;;;131.95;;
9186;SDS011;7273;48.902;9.410;2022-07-11T06:36:04;415.67;;;126.18;;
9186;SDS011;7273;48.902;9.410;2022-07-11T06:38:30;335.63;;;108.93;;
9186;SDS011;7273;48.902;9.410;2022-07-11T06:40:57;352.17;;;111.60;;
9186;SDS011;7273;48.902;9.410;2022-07-11T06:43:22;348.60;;;110.68;;
9186;SDS011;7273;48.902;9.410;2022-07-11T06:45:48;348.40;;;111.50;;
9186;SDS011;7273;48.902;9.410;2022-07-11T06:48:14;367.23;;;115.68;;
9186;SDS011;7273;48.902;9.410;2022-07-11T06:50:40;368.15;;;114.93;;
9186;SDS011;7273;48.902;9.410;2022-07-11T06:53:05;388.80;;;119.18;;
9186;SDS011;7273;48.902;9.410;2022-07-11T06:55:31;394.85;;;120.63;;
9186;SDS011;7273;48.902;9.410;2022-07-11T06:57:58;390.92;;;119.45;;
9186;SDS011;7273;48.902;9.410;2022-07-11T07:00:24;351.80;;;106.45;;
9186;SDS011;7273;48.902;9.410;2022-07-11T07:02:49;415.63;;;125.30;;
9186;SDS011;7273;48.902;9.410;2022-07-11T07:05:15;403.10;;;122.20;;
9186;SDS011;7273;48.902;9.410;2022-07-11T07:07:41;397.98;;;120.82;;
9186;SDS011;7273;48.902;9.410;2022-07-11T07:10:06;409.70;;;124.07;;
9186;SDS011;7273;48.902;9.410;2022-07-11T07:12:36;388.88;;;119.28;;
9186;SDS011;7273;48.902;9.410;2022-07-11T07:15:03;385.15;;;118.35;;
9186;SDS011;7273;48.902;9.410;2022-07-11T07:17:29;308.55;;;103.15;;
9186;SDS011;7273;48.902;9.410;2022-07-11T07:19:56;134.25;;;63.63;;
9186;SDS011;7273;48.902;9.410;2022-07-11T07:22:21;145.57;;;67.60;;
9186;SDS011;7273;48.902;9.410;2022-07-11T07:24:47;147.18;;;67.95;;
9186;SDS011;7273;48.902;9.410;2022-07-11T07:27:12;187.23;;;78.70;;
9186;SDS011;7273;48.902;9.410;2022-07-11T07:29:38;208.50;;;82.78;;
9186;SDS011;7273;48.902;9.410;2022-07-11T07:32:04;127.78;;;62.95;;
9186;SDS011;7273;48.902;9.410;2022-07-11T07:34:30;166.68;;;72.60;;
9186;SDS011;7273;48.902;9.410;2022-07-11T07:36:55;162.90;;;72.93;;
9186;SDS011;7273;48.902;9.410;2022-07-11T07:39:21;167.98;;;74.97;;
9186;SDS011;7273;48.902;9.410;2022-07-11T07:41:46;201.35;;;82.45;;
9186;SDS011;7273;48.902;9.410;2022-07-11T07:44:12;208.73;;;83.65;;
9186;SDS011;7273;48.902;9.410;2022-07-11T07:46:37;226.88;;;87.22;;
9186;SDS011;7273;48.902;9.410;2022-07-11T07:49:03;220.18;;;86.03;;
9186;SDS011;7273;48.902;9.410;2022-07-11T07:51:28;223.70;;;86.70;;
9186;SDS011;7273;48.902;9.410;2022-07-11T07:53:54;236.05;;;89.25;;
9186;SDS011;7273;48.902;9.410;2022-07-11T07:56:20;266.02;;;95.85;;
9186;SDS011;7273;48.902;9.410;2022-07-11T07:58:46;257.25;;;94.65;;
9186;SDS011;7273;48.902;9.410;2022-07-11T08:01:11;215.50;;;85.65;;
9186;SDS011;7273;48.902;9.410;2022-07-11T08:03:55;213.38;;;85.10;;
9186;SDS011;7273;48.902;9.410;2022-07-11T08:06:21;227.15;;;87.88;;
9186;SDS011;7273;48.902;9.410;2022-07-11T08:08:47;207.85;;;83.72;;
9186;SDS011;7273;48.902;9.410;2022-07-11T08:11:12;181.10;;;78.18;;
9186;SDS011;7273;48.902;9.410;2022-07-11T08:13:38;192.90;;;80.53;;
9186;SDS011;7273;48.902;9.410;2022-07-11T08:16:04;189.68;;;79.95;;
9186;SDS011;7273;48.902;9.410;2022-07-11T08:18:33;228.18;;;88.03;;
9186;SDS011;7273;48.902;9.410;2022-07-11T08:20:59;277.08;;;98.05;;
9186;SDS011;7273;48.902;9.410;2022-07-11T08:23:25;242.63;;;91.05;;
9186;SDS011;7273;48.902;9.410;2022-07-11T08:25:50;292.00;;;100.93;;
9186;SDS011;7273;48.902;9.410;2022-07-11T08:28:16;276.38;;;98.35;;
9186;SDS011;7273;48.902;9.410;2022-07-11T08:30:41;290.98;;;101.10;;
9186;SDS011;7273;48.902;9.410;2022-07-11T08:33:07;275.13;;;98.13;;
9186;SDS011;7273;48.902;9.410;2022-07-11T08:35:32;287.83;;;100.32;;
9186;SDS011;7273;48.902;9.410;2022-07-11T08:37:58;232.18;;;88.43;;
9186;SDS011;7273;48.902;9.410;2022-07-11T08:40:23;241.68;;;91.57;;
9186;SDS011;7273;48.902;9.410;2022-07-11T08:42:49;249.32;;;92.65;;
9186;SDS011;7273;48.902;9.410;2022-07-11T08:45:14;265.80;;;96.38;;
9186;SDS011;7273;48.902;9.410;2022-07-11T08:47:41;246.05;;;91.97;;
9186;SDS011;7273;48.902;9.410;2022-07-11T08:50:09;274.20;;;98.90;;
9186;SDS011;7273;48.902;9.410;2022-07-11T08:52:36;262.63;;;96.10;;
9186;SDS011;7273;48.902;9.410;2022-07-11T08:55:02;256.30;;;94.78;;
9186;SDS011;7273;48.902;9.410;2022-07-11T08:57:35;271.73;;;97.30;;
9186;SDS011;7273;48.902;9.410;2022-07-11T09:00:03;261.48;;;95.65;;
9186;SDS011;7273;48.902;9.410;2022-07-11T09:02:32;241.48;;;91.30;;
9186;SDS011;7273;48.902;9.410;2022-07-11T09:04:58;247.02;;;93.28;;
9186;SDS011;7273;48.902;9.410;2022-07-11T09:07:25;244.20;;;91.95;;
9186;SDS011;7273;48.902;9.410;2022-07-11T09:09:51;206.30;;;84.32;;
9186;SDS011;7273;48.902;9.410;2022-07-11T09:12:17;204.60;;;84.60;;
9186;SDS011;7273;48.902;9.410;2022-07-11T09:14:46;178.13;;;78.07;;
9186;SDS011;7273;48.902;9.410;2022-07-11T09:17:13;210.70;;;85.97;;
9186;SDS011;7273;48.902;9.410;2022-07-11T09:19:39;234.43;;;90.20;;
9186;SDS011;7273;48.902;9.410;2022-07-11T09:22:11;241.88;;;92.35;;
9186;SDS011;7273;48.902;9.410;2022-07-11T09:25:04;207.60;;;83.93;;
9186;SDS011;7273;48.902;9.410;2022-07-11T09:27:52;191.23;;;81.30;;
9186;SDS011;7273;48.902;9.410;2022-07-11T09:30:21;204.27;;;84.00;;
9186;SDS011;7273;48.902;9.410;2022-07-11T09:32:51;236.60;;;91.63;;
9186;SDS011;7273;48.902;9.410;2022-07-11T09:35:19;219.73;;;87.65;;
9186;SDS011;7273;48.902;9.410;2022-07-11T09:37:44;233.73;;;90.13;;
9186;SDS011;7273;48.902;9.410;2022-07-11T09:40:12;245.15;;;93.07;;
9186;SDS011;7273;48.902;9.410;2022-07-11T09:42:55;261.40;;;95.65;;
9186;SDS011;7273;48.902;9.410;2022-07-11T09:45:22;251.55;;;93.80;;
9186;SDS011;7273;48.902;9.410;2022-07-11T09:47:50;250.80;;;93.75;;
9186;SDS011;7273;48.902;9.410;2022-07-11T09:50:21;239.85;;;91.25;;
9186;SDS011;7273;48.902;9.410;2022-07-11T09:52:58;40.55;;;21.48;;
9186;SDS011;7273;48.902;9.410;2022-07-11T09:55:26;120.25;;;62.10;;
9186;SDS011;7273;48.902;9.410;2022-07-11T09:57:52;123.68;;;63.17;;
9186;SDS011;7273;48.902;9.410;2022-07-11T10:00:18;33.13;;;18.98;;
9186;SDS011;7273;48.902;9.410;2022-07-11T10:02:44;88.00;;;50.15;;
9186;SDS011;7273;48.902;9.410;2022-07-11T10:05:09;13.98;;;8.27;;
9186;SDS011;7273;48.902;9.410;2022-07-11T10:07:35;59.55;;;39.38;;
9186;SDS011;7273;48.902;9.410;2022-07-11T10:10:02;46.65;;;30.80;;
9186;SDS011;7273;48.902;9.410;2022-07-11T10:12:30;62.92;;;41.25;;
9186;SDS011;7273;48.902;9.410;2022-07-11T10:14:58;68.10;;;43.03;;
9186;SDS011;7273;48.902;9.410;2022-07-11T10:23:22;68.90;;;42.35;;
9186;SDS011;7273;48.902;9.410;2022-07-11T10:28:57;20.33;;;11.38;;
9186;SDS011;7273;48.902;9.410;2022-07-11T10:31:27;14.75;;;6.82;;
9186;SDS011;7273;48.902;9.410;2022-07-11T10:36:32;9.68;;;4.10;;
9186;SDS011;7273;48.902;9.410;2022-07-11T10:41:39;17.67;;;9.35;;
9186;SDS011;7273;48.902;9.410;2022-07-11T10:44:05;13.40;;;7.25;;
9186;SDS011;7273;48.902;9.410;2022-07-11T10:46:30;12.95;;;6.15;;
9186;SDS011;7273;48.902;9.410;2022-07-11T10:49:01;12.13;;;5.07;;
9186;SDS011;7273;48.902;9.410;2022-07-11T10:54:17;5.65;;;2.40;;
9186;SDS011;7273;48.902;9.410;2022-07-11T10:59:27;8.35;;;2.67;;
9186;SDS011;7273;48.902;9.410;2022-07-11T11:02:09;13.00;;;3.15;;
9186;SDS011;7273;48.902;9.410;2022-07-11T11:04:42;8.00;;;3.50;;
9186;SDS011;7273;48.902;9.410;2022-07-11T11:09:55;5.25;;;2.33;;
9186;SDS011;7273;48.902;9.410;2022-07-11T11:15:38;3.15;;;1.50;;
9186;SDS011;7273;48.902;9.410;2022-07-11T11:23:29;0.98;;;0.60;;
9186;SDS011;7273;48.902;9.410;2022-07-11T11:26:09;0.95;;;0.60;;
9186;SDS011;7273;48.902;9.410;2022-07-11T11:29:00;1.20;;;0.50;;
9186;SDS011;7273;48.902;9.410;2022-07-11T11:31:31;1.88;;;0.50;;
9186;SDS011;7273;48.902;9.410;2022-07-11T11:33:58;1.05;;;0.70;;
9186;SDS011;7273;48.902;9.410;2022-07-11T11:36:25;2.90;;;0.70;;
9186;SDS011;7273;48.902;9.410;2022-07-11T11:38:51;1.40;;;0.80;;
9186;SDS011;7273;48.902;9.410;2022-07-11T11:41:29;0.45;;;0.25;;
9186;SDS011;7273;48.902;9.410;2022-07-11T11:43:56;1.95;;;0.60;;
9186;SDS011;7273;48.902;9.410;2022-07-11T11:46:30;0.80;;;0.30;;
9186;SDS011;7273;48.902;9.410;2022-07-11T11:48:59;0.55;;;0.52;;
9186;SDS011;7273;48.902;9.410;2022-07-11T11:51:29;0.60;;;0.55;;
9186;SDS011;7273;48.902;9.410;2022-07-11T11:53:56;0.88;;;0.60;;
9186;SDS011;7273;48.902;9.410;2022-07-11T11:56:25;1.25;;;0.70;;
9186;SDS011;7273;48.902;9.410;2022-07-11T11:59:02;7.95;;;0.70;;
9186;SDS011;7273;48.902;9.410;2022-07-11T12:01:30;1.23;;;0.70;;
9186;SDS011;7273;48.902;9.410;2022-07-11T12:04:00;1.10;;;0.80;;
9186;SDS011;7273;48.902;9.410;2022-07-11T12:06:40;4.30;;;0.40;;
9186;SDS011;7273;48.902;9.410;2022-07-11T12:09:08;1.42;;;0.80;;
9186;SDS011;7273;48.902;9.410;2022-07-11T12:11:37;1.30;;;0.50;;
9186;SDS011;7273;48.902;9.410;2022-07-11T12:14:04;1.67;;;0.90;;
9186;SDS011;7273;48.902;9.410;2022-07-11T12:16:31;1.00;;;0.50;;
9186;SDS011;7273;48.902;9.410;2022-07-11T12:19:05;5.55;;;1.05;;
9186;SDS011;7273;48.902;9.410;2022-07-11T12:21:34;1.17;;;0.80;;
9186;SDS011;7273;48.902;9.410;2022-07-11T12:24:02;2.15;;;0.60;;
9186;SDS011;7273;48.902;9.410;2022-07-11T12:26:30;2.72;;;0.90;;
9186;SDS011;7273;48.902;9.410;2022-07-11T12:29:08;0.65;;;0.50;;
9186;SDS011;7273;48.902;9.410;2022-07-11T12:31:48;1.10;;;0.60;;
9186;SDS011;7273;48.902;9.410;2022-07-11T12:34:21;2.50;;;1.00;;
9186;SDS011;7273;48.902;9.410;2022-07-11T12:36:48;1.15;;;0.90;;
9186;SDS011;7273;48.902;9.410;2022-07-11T12:39:27;0.55;;;0.50;;
9186;SDS011;7273;48.902;9.410;2022-07-11T12:41:54;3.60;;;0.95;;
9186;SDS011;7273;48.902;9.410;2022-07-11T12:44:30;0.70;;;0.60;;
9186;SDS011;7273;48.902;9.410;2022-07-11T12:47:15;0.45;;;0.45;;
9186;SDS011;7273;48.902;9.410;2022-07-11T12:52:15;2.70;;;0.60;;
9186;SDS011;7273;48.902;9.410;2022-07-11T12:54:42;3.05;;;1.10;;
9186;SDS011;7273;48.902;9.410;2022-07-11T12:57:08;1.23;;;0.82;;
9186;SDS011;7273;48.902;9.410;2022-07-11T12:59:36;0.85;;;0.65;;
9186;SDS011;7273;48.902;9.410;2022-07-11T13:02:05;1.10;;;0.73;;
9186;SDS011;7273;48.902;9.410;2022-07-11T13:04:38;3.40;;;1.38;;
9186;SDS011;7273;48.902;9.410;2022-07-11T13:07:22;2.28;;;1.10;;
9186;SDS011;7273;48.902;9.410;2022-07-11T13:10:07;1.00;;;0.63;;
9186;SDS011;7273;48.902;9.410;2022-07-11T13:12:33;1.02;;;0.82;;
9186;SDS011;7273;48.902;9.410;2022-07-11T13:15:04;0.68;;;0.50;;
9186;SDS011;7273;48.902;9.410;2022-07-11T13:17:44;1.10;;;0.80;;
9186;SDS011;7273;48.902;9.410;2022-07-11T13:20:15;1.58;;;0.52;;
9186;SDS011;7273;48.902;9.410;2022-07-11T13:22:54;1.13;;;0.57;;
9186;SDS011;7273;48.902;9.410;2022-07-11T13:25:20;0.63;;;0.55;;
9186;SDS011;7273;48.902;9.410;2022-07-11T13:27:47;3.55;;;0.80;;
9186;SDS011;7273;48.902;9.410;2022-07-11T13:30:14;1.25;;;0.80;;
9186;SDS011;7273;48.902;9.410;2022-07-11T13:32:42;1.27;;;0.70;;
9186;SDS011;7273;48.902;9.410;2022-07-11T13:35:09;0.45;;;0.40;;
9186;SDS011;7273;48.902;9.410;2022-07-11T13:37:35;1.38;;;0.90;;
9186;SDS011;7273;48.902;9.410;2022-07-11T13:40:03;1.35;;;0.73;;
9186;SDS011;7273;48.902;9.410;2022-07-11T13:42:30;1.55;;;0.82;;
9186;SDS011;7273;48.902;9.410;2022-07-11T13:44:57;6.80;;;1.15;;
9186;SDS011;7273;48.902;9.410;2022-07-11T13:47:23;1.15;;;0.80;;
9186;SDS011;7273;48.902;9.410;2022-07-11T13:49:49;1.30;;;0.93;;
9186;SDS011;7273;48.902;9.410;2022-07-11T13:52:14;0.98;;;0.70;;
9186;SDS011;7273;48.902;9.410;2022-07-11T13:54:40;3.53;;;1.02;;
9186;SDS011;7273;48.902;9.410;2022-07-11T13:57:05;1.23;;;0.60;;
9186;SDS011;7273;48.902;9.410;2022-07-11T13:59:31;4.35;;;1.02;;
9186;SDS011;7273;48.902;9.410;2022-07-11T14:01:56;2.33;;;0.93;;
9186;SDS011;7273;48.902;9.410;2022-07-11T14:04:22;1.23;;;0.90;;
9186;SDS011;7273;48.902;9.410;2022-07-11T14:06:47;3.33;;;1.02;;
9186;SDS011;7273;48.902;9.410;2022-07-11T14:09:12;1.15;;;0.75;;
9186;SDS011;7273;48.902;9.410;2022-07-11T14:11:39;0.80;;;0.55;;
9186;SDS011;7273;48.902;9.410;2022-07-11T14:14:04;1.48;;;1.08;;
9186;SDS011;7273;48.902;9.410;2022-07-11T14:16:30;1.50;;;0.93;;
9186;SDS011;7273;48.902;9.410;2022-07-11T14:18:56;1.33;;;0.75;;
9186;SDS011;7273;48.902;9.410;2022-07-11T14:21:21;2.13;;;1.10;;
9186;SDS011;7273;48.902;9.410;2022-07-11T14:23:47;1.90;;;1.00;;
9186;SDS011;7273;48.902;9.410;2022-07-11T14:26:12;0.90;;;0.77;;
9186;SDS011;7273;48.902;9.410;2022-07-11T14:28:38;1.30;;;0.68;;
9186;SDS011;7273;48.902;9.410;2022-07-11T14:31:03;1.13;;;0.80;;
9186;SDS011;7273;48.902;9.410;2022-07-11T14:33:29;0.90;;;0.68;;
9186;SDS011;7273;48.902;9.410;2022-07-11T14:35:54;1.00;;;0.88;;
9186;SDS011;7273;48.902;9.410;2022-07-11T14:38:20;1.08;;;0.80;;
9186;SDS011;7273;48.902;9.410;2022-07-11T14:40:45;1.23;;;0.80;;
9186;SDS011;7273;48.902;9.410;2022-07-11T14:43:11;2.70;;;0.90;;
9186;SDS011;7273;48.902;9.410;2022-07-11T14:45:36;1.50;;;0.80;;
9186;SDS011;7273;48.902;9.410;2022-07-11T14:48:02;1.67;;;1.00;;
9186;SDS011;7273;48.902;9.410;2022-07-11T14:50:27;0.90;;;0.60;;
9186;SDS011;7273;48.902;9.410;2022-07-11T14:52:53;1.85;;;0.90;;
9186;SDS011;7273;48.902;9.410;2022-07-11T14:55:18;1.90;;;0.73;;
9186;SDS011;7273;48.902;9.410;2022-07-11T14:57:44;0.50;;;0.50;;
9186;SDS011;7273;48.902;9.410;2022-07-11T15:00:09;1.13;;;0.80;;
9186;SDS011;7273;48.902;9.410;2022-07-11T15:02:36;1.67;;;0.88;;
9186;SDS011;7273;48.902;9.410;2022-07-11T15:05:20;2.28;;;0.80;;
9186;SDS011;7273;48.902;9.410;2022-07-11T15:07:45;1.35;;;0.75;;
9186;SDS011;7273;48.902;9.410;2022-07-11T15:10:29;1.80;;;0.70;;
9186;SDS011;7273;48.902;9.410;2022-07-11T15:13:13;1.02;;;0.70;;
9186;SDS011;7273;48.902;9.410;2022-07-11T15:15:39;2.03;;;1.00;;
9186;SDS011;7273;48.902;9.410;2022-07-11T15:18:04;1.00;;;0.65;;
9186;SDS011;7273;48.902;9.410;2022-07-11T15:20:30;1.67;;;1.02;;
9186;SDS011;7273;48.902;9.410;2022-07-11T15:22:56;2.25;;;1.38;;
9186;SDS011;7273;48.902;9.410;2022-07-11T15:25:21;2.38;;;1.25;;
9186;SDS011;7273;48.902;9.410;2022-07-11T15:27:47;2.95;;;1.50;;